sensor_id;sensor_type;location;lat;lon;timestamp;P1;durP1;ratioP1;P2;durP2;ratioP2
12253;SDS011;6189;52.526;13.390;2022-12-07T08:13:38;17.87;;;12.73;;
12253;SDS011;6189;52.526;13.390;2022-12-07T08:16:24;17.43;;;11.53;;
12253;SDS011;6189;52.526;13.390;2022-12-07T08:19:09;16.07;;;11.63;;
12253;SDS011;6189;52.526;13.390;2022-12-07T08:21:55;14.23;;;9.47;;
12253;SDS011;6189;52.526;13.390;2022-12-07T08:24:41;12.30;;;8.93;;
12253;SDS011;6189;52.526;13.390;2022-12-07T08:27:26;10.27;;;8.87;;
12253;SDS011;6189;52.526;13.390;2022-12-07T08:30:14;10.17;;;7.63;;
12253;SDS011;6189;52.526;13.390;2022-12-07T08:32:59;10.03;;;8.23;;
12253;SDS011;6189;52.526;13.390;2022-12-07T08:35:45;9.77;;;7.70;;
12253;SDS011;6189;52.526;13.390;2022-12-07T08:38:31;8.50;;;6.97;;
12253;SDS011;6189;52.526;13.390;2022-12-07T08:41:17;9.17;;;6.10;;
12253;SDS011;6189;52.526;13.390;2022-12-07T08:44:03;8.80;;;5.80;;
12253;SDS011;6189;52.526;13.390;2022-12-07T08:46:51;10.17;;;5.23;;
12253;SDS011;6189;52.526;13.390;2022-12-07T08:49:40;6.47;;;4.87;;
12253;SDS011;6189;52.526;13.390;2022-12-07T08:52:29;7.17;;;5.03;;
12253;SDS011;6189;52.526;13.390;2022-12-07T08:55:15;8.50;;;3.87;;
12253;SDS011;6189;52.526;13.390;2022-12-07T08:58:01;6.90;;;4.20;;
12253;SDS011;6189;52.526;13.390;2022-12-07T09:00:47;4.73;;;4.17;;
12253;SDS011;6189;52.526;13.390;2022-12-07T09:03:35;5.33;;;3.30;;
12253;SDS011;6189;52.526;13.390;2022-12-07T09:06:20;5.07;;;3.67;;
12253;SDS011;6189;52.526;13.390;2022-12-07T09:09:06;3.10;;;2.67;;
12253;SDS011;6189;52.526;13.390;2022-12-07T09:11:54;3.93;;;3.07;;
12253;SDS011;6189;52.526;13.390;2022-12-07T09:14:40;4.60;;;2.87;;
12253;SDS011;6189;52.526;13.390;2022-12-07T09:17:25;3.67;;;3.20;;
12253;SDS011;6189;52.526;13.390;2022-12-07T09:20:12;5.57;;;2.57;;
12253;SDS011;6189;52.526;13.390;2022-12-07T09:22:58;4.10;;;2.60;;
12253;SDS011;6189;52.526;13.390;2022-12-07T09:25:44;3.40;;;2.60;;
12253;SDS011;6189;52.526;13.390;2022-12-07T09:28:30;2.97;;;2.47;;
12253;SDS011;6189;52.526;13.390;2022-12-07T09:31:15;3.07;;;2.47;;
12253;SDS011;6189;52.526;13.390;2022-12-07T09:34:01;3.87;;;2.70;;
12253;SDS011;6189;52.526;13.390;2022-12-07T09:36:50;6.23;;;2.40;;
12253;SDS011;6189;52.526;13.390;2022-12-07T09:39:38;3.20;;;2.67;;
12253;SDS011;6189;52.526;13.390;2022-12-07T09:42:26;4.70;;;3.27;;
12253;SDS011;6189;52.526;13.390;2022-12-07T09:45:15;4.93;;;3.30;;
12253;SDS011;6189;52.526;13.390;2022-12-07T09:48:04;3.17;;;2.87;;
12253;SDS011;6189;52.526;13.390;2022-12-07T09:50:50;4.77;;;3.00;;
12253;SDS011;6189;52.526;13.390;2022-12-07T09:53:38;3.10;;;2.77;;
12253;SDS011;6189;52.526;13.390;2022-12-07T09:56:24;3.80;;;3.03;;
12253;SDS011;6189;52.526;13.390;2022-12-07T09:59:12;4.63;;;2.90;;
12253;SDS011;6189;52.526;13.390;2022-12-07T10:02:19;2.47;;;2.20;;
12253;SDS011;6189;52.526;13.390;2022-12-07T10:05:11;3.53;;;3.10;;
12253;SDS011;6189;52.526;13.390;2022-12-07T10:07:58;6.13;;;4.00;;
12253;SDS011;6189;52.526;13.390;2022-12-07T10:10:47;5.47;;;3.80;;
12253;SDS011;6189;52.526;13.390;2022-12-07T10:13:37;3.53;;;2.50;;
12253;SDS011;6189;52.526;13.390;2022-12-07T10:16:32;6.37;;;2.70;;
12253;SDS011;6189;52.526;13.390;2022-12-07T10:19:23;6.37;;;2.40;;
12253;SDS011;6189;52.526;13.390;2022-12-07T10:22:11;3.00;;;2.47;;
12253;SDS011;6189;52.526;13.390;2022-12-07T10:25:07;4.10;;;2.43;;
12253;SDS011;6189;52.526;13.390;2022-12-07T10:27:58;4.87;;;2.63;;
12253;SDS011;6189;52.526;13.390;2022-12-07T10:30:50;3.10;;;2.40;;
12253;SDS011;6189;52.526;13.390;2022-12-07T10:33:38;2.77;;;2.20;;
12253;SDS011;6189;52.526;13.390;2022-12-07T10:36:34;4.20;;;2.67;;
12253;SDS011;6189;52.526;13.390;2022-12-07T10:39:21;5.13;;;2.80;;
12253;SDS011;6189;52.526;13.390;2022-12-07T10:42:13;3.47;;;2.50;;
12253;SDS011;6189;52.526;13.390;2022-12-07T10:45:09;3.20;;;2.90;;
12253;SDS011;6189;52.526;13.390;2022-12-07T10:48:00;3.23;;;2.73;;
12253;SDS011;6189;52.526;13.390;2022-12-07T10:50:57;4.83;;;2.90;;
12253;SDS011;6189;52.526;13.390;2022-12-07T10:53:53;5.23;;;3.53;;
12253;SDS011;6189;52.526;13.390;2022-12-07T10:56:47;4.97;;;3.20;;
12253;SDS011;6189;52.526;13.390;2022-12-07T10:59:51;5.17;;;3.50;;
12253;SDS011;6189;52.526;13.390;2022-12-07T11:02:49;5.83;;;4.10;;
12253;SDS011;6189;52.526;13.390;2022-12-07T11:05:56;10.03;;;5.87;;
12253;SDS011;6189;52.526;13.390;2022-12-07T11:09:03;10.20;;;4.90;;
12253;SDS011;6189;52.526;13.390;2022-12-07T11:12:03;5.40;;;4.10;;
12253;SDS011;6189;52.526;13.390;2022-12-07T11:14:54;7.40;;;4.33;;
12253;SDS011;6189;52.526;13.390;2022-12-07T11:17:47;6.73;;;4.50;;
12253;SDS011;6189;52.526;13.390;2022-12-07T11:20:41;6.70;;;4.57;;
12253;SDS011;6189;52.526;13.390;2022-12-07T11:23:40;6.70;;;4.60;;
12253;SDS011;6189;52.526;13.390;2022-12-07T11:26:36;6.33;;;4.80;;
12253;SDS011;6189;52.526;13.390;2022-12-07T11:29:38;6.57;;;4.37;;
12253;SDS011;6189;52.526;13.390;2022-12-07T11:32:53;7.43;;;4.67;;
12253;SDS011;6189;52.526;13.390;2022-12-07T11:35:57;8.20;;;4.47;;
12253;SDS011;6189;52.526;13.390;2022-12-07T11:38:52;7.30;;;3.83;;
12253;SDS011;6189;52.526;13.390;2022-12-07T11:41:40;6.20;;;4.53;;
12253;SDS011;6189;52.526;13.390;2022-12-07T11:44:30;8.60;;;4.10;;
12253;SDS011;6189;52.526;13.390;2022-12-07T11:47:20;6.50;;;4.60;;
12253;SDS011;6189;52.526;13.390;2022-12-07T11:50:16;6.73;;;4.20;;
12253;SDS011;6189;52.526;13.390;2022-12-07T11:53:10;7.30;;;4.77;;
12253;SDS011;6189;52.526;13.390;2022-12-07T11:56:03;9.40;;;4.50;;
12253;SDS011;6189;52.526;13.390;2022-12-07T11:58:53;7.47;;;4.60;;
12253;SDS011;6189;52.526;13.390;2022-12-07T12:01:44;5.70;;;4.23;;
12253;SDS011;6189;52.526;13.390;2022-12-07T12:04:42;8.87;;;3.97;;
12253;SDS011;6189;52.526;13.390;2022-12-07T12:07:36;5.13;;;4.03;;
12253;SDS011;6189;52.526;13.390;2022-12-07T12:10:24;7.33;;;4.03;;
12253;SDS011;6189;52.526;13.390;2022-12-07T12:13:24;12.63;;;4.43;;
12253;SDS011;6189;52.526;13.390;2022-12-07T12:16:39;5.00;;;4.03;;
12253;SDS011;6189;52.526;13.390;2022-12-07T12:19:37;7.73;;;3.73;;
12253;SDS011;6189;52.526;13.390;2022-12-07T12:22:28;11.23;;;4.07;;
12253;SDS011;6189;52.526;13.390;2022-12-07T12:25:23;6.90;;;3.87;;
12253;SDS011;6189;52.526;13.390;2022-12-07T12:28:18;10.03;;;3.83;;
12253;SDS011;6189;52.526;13.390;2022-12-07T12:31:13;8.47;;;4.07;;
12253;SDS011;6189;52.526;13.390;2022-12-07T12:34:01;8.87;;;4.47;;
12253;SDS011;6189;52.526;13.390;2022-12-07T12:36:48;8.30;;;4.47;;
12253;SDS011;6189;52.526;13.390;2022-12-07T12:39:34;5.73;;;4.23;;
12253;SDS011;6189;52.526;13.390;2022-12-07T12:42:42;8.77;;;3.57;;
12253;SDS011;6189;52.526;13.390;2022-12-07T12:45:29;6.27;;;3.53;;
12253;SDS011;6189;52.526;13.390;2022-12-07T12:51:36;3.90;;;2.73;;
12253;SDS011;6189;52.526;13.390;2022-12-07T12:54:23;11.83;;;3.60;;
12253;SDS011;6189;52.526;13.390;2022-12-07T12:57:11;8.53;;;3.83;;
12253;SDS011;6189;52.526;13.390;2022-12-07T13:00:14;6.60;;;3.40;;
12253;SDS011;6189;52.526;13.390;2022-12-07T13:03:01;11.57;;;3.63;;
12253;SDS011;6189;52.526;13.390;2022-12-07T13:05:47;9.23;;;3.23;;
12253;SDS011;6189;52.526;13.390;2022-12-07T13:08:32;7.37;;;3.30;;
12253;SDS011;6189;52.526;13.390;2022-12-07T13:11:25;12.07;;;3.33;;
12253;SDS011;6189;52.526;13.390;2022-12-07T13:17:57;9.03;;;3.43;;
12253;SDS011;6189;52.526;13.390;2022-12-07T13:20:46;8.00;;;3.30;;
12253;SDS011;6189;52.526;13.390;2022-12-07T13:23:34;10.10;;;3.80;;
12253;SDS011;6189;52.526;13.390;2022-12-07T13:26:22;6.80;;;3.33;;
12253;SDS011;6189;52.526;13.390;2022-12-07T13:29:12;7.73;;;3.50;;
12253;SDS011;6189;52.526;13.390;2022-12-07T13:31:58;6.57;;;3.10;;
12253;SDS011;6189;52.526;13.390;2022-12-07T13:34:45;5.97;;;3.40;;
12253;SDS011;6189;52.526;13.390;2022-12-07T13:37:31;8.47;;;3.50;;
12253;SDS011;6189;52.526;13.390;2022-12-07T13:40:19;7.40;;;3.40;;
12253;SDS011;6189;52.526;13.390;2022-12-07T13:43:12;6.00;;;3.03;;
12253;SDS011;6189;52.526;13.390;2022-12-07T13:46:00;9.23;;;3.67;;
12253;SDS011;6189;52.526;13.390;2022-12-07T13:48:46;10.00;;;5.13;;
12253;SDS011;6189;52.526;13.390;2022-12-07T13:51:36;11.80;;;3.83;;
12253;SDS011;6189;52.526;13.390;2022-12-07T13:54:22;10.27;;;3.23;;
12253;SDS011;6189;52.526;13.390;2022-12-07T13:57:08;7.20;;;3.13;;
12253;SDS011;6189;52.526;13.390;2022-12-07T13:59:53;8.80;;;3.50;;
12253;SDS011;6189;52.526;13.390;2022-12-07T14:02:54;6.37;;;3.03;;
12253;SDS011;6189;52.526;13.390;2022-12-07T14:05:41;8.27;;;3.53;;
12253;SDS011;6189;52.526;13.390;2022-12-07T14:08:29;7.87;;;3.00;;
12253;SDS011;6189;52.526;13.390;2022-12-07T14:11:16;8.13;;;3.47;;
12253;SDS011;6189;52.526;13.390;2022-12-07T14:14:04;7.83;;;3.37;;
12253;SDS011;6189;52.526;13.390;2022-12-07T14:17:00;7.20;;;2.87;;
12253;SDS011;6189;52.526;13.390;2022-12-07T14:19:48;8.17;;;2.87;;
12253;SDS011;6189;52.526;13.390;2022-12-07T14:22:36;5.37;;;2.80;;
12253;SDS011;6189;52.526;13.390;2022-12-07T14:25:24;10.87;;;2.70;;
12253;SDS011;6189;52.526;13.390;2022-12-07T14:28:24;5.87;;;2.63;;
12253;SDS011;6189;52.526;13.390;2022-12-07T14:31:11;7.33;;;2.97;;
12253;SDS011;6189;52.526;13.390;2022-12-07T14:33:58;7.63;;;3.27;;
12253;SDS011;6189;52.526;13.390;2022-12-07T14:36:44;8.20;;;3.20;;
12253;SDS011;6189;52.526;13.390;2022-12-07T14:39:30;7.10;;;3.20;;
12253;SDS011;6189;52.526;13.390;2022-12-07T14:42:16;6.30;;;2.90;;
12253;SDS011;6189;52.526;13.390;2022-12-07T14:45:02;7.93;;;3.10;;
12253;SDS011;6189;52.526;13.390;2022-12-07T14:47:48;8.17;;;3.57;;
12253;SDS011;6189;52.526;13.390;2022-12-07T14:50:35;5.53;;;2.90;;
12253;SDS011;6189;52.526;13.390;2022-12-07T14:53:26;9.23;;;3.10;;
12253;SDS011;6189;52.526;13.390;2022-12-07T14:56:15;8.57;;;3.37;;
12253;SDS011;6189;52.526;13.390;2022-12-07T14:59:02;7.93;;;2.93;;
12253;SDS011;6189;52.526;13.390;2022-12-07T15:01:47;5.93;;;3.30;;
12253;SDS011;6189;52.526;13.390;2022-12-07T15:04:33;6.70;;;2.80;;
12253;SDS011;6189;52.526;13.390;2022-12-07T15:07:19;8.43;;;2.80;;
12253;SDS011;6189;52.526;13.390;2022-12-07T15:10:06;6.57;;;3.13;;
12253;SDS011;6189;52.526;13.390;2022-12-07T15:12:56;5.93;;;3.07;;
12253;SDS011;6189;52.526;13.390;2022-12-07T15:16:04;6.27;;;2.80;;
12253;SDS011;6189;52.526;13.390;2022-12-07T15:18:53;8.27;;;3.03;;
12253;SDS011;6189;52.526;13.390;2022-12-07T15:21:38;7.13;;;3.30;;
12253;SDS011;6189;52.526;13.390;2022-12-07T15:24:24;8.93;;;2.90;;
12253;SDS011;6189;52.526;13.390;2022-12-07T15:27:10;7.00;;;2.93;;
12253;SDS011;6189;52.526;13.390;2022-12-07T15:29:55;7.87;;;2.67;;
12253;SDS011;6189;52.526;13.390;2022-12-07T15:32:42;10.00;;;2.53;;
12253;SDS011;6189;52.526;13.390;2022-12-07T15:35:28;7.03;;;2.50;;
12253;SDS011;6189;52.526;13.390;2022-12-07T15:38:14;5.73;;;2.73;;
12253;SDS011;6189;52.526;13.390;2022-12-07T15:40:59;7.10;;;2.60;;
12253;SDS011;6189;52.526;13.390;2022-12-07T15:43:45;6.87;;;2.97;;
12253;SDS011;6189;52.526;13.390;2022-12-07T15:46:48;9.80;;;2.70;;
12253;SDS011;6189;52.526;13.390;2022-12-07T15:49:35;9.23;;;4.50;;
12253;SDS011;6189;52.526;13.390;2022-12-07T15:52:21;10.67;;;3.53;;
12253;SDS011;6189;52.526;13.390;2022-12-07T15:55:07;7.93;;;3.57;;
12253;SDS011;6189;52.526;13.390;2022-12-07T15:57:54;10.57;;;3.20;;
12253;SDS011;6189;52.526;13.390;2022-12-07T16:00:39;6.87;;;2.60;;
12253;SDS011;6189;52.526;13.390;2022-12-07T16:03:26;8.33;;;3.17;;
12253;SDS011;6189;52.526;13.390;2022-12-07T16:06:14;7.10;;;2.57;;
12253;SDS011;6189;52.526;13.390;2022-12-07T16:09:00;6.53;;;2.83;;
12253;SDS011;6189;52.526;13.390;2022-12-07T16:11:46;8.17;;;2.60;;
12253;SDS011;6189;52.526;13.390;2022-12-07T16:14:31;7.73;;;2.60;;
12253;SDS011;6189;52.526;13.390;2022-12-07T16:17:17;10.67;;;2.90;;
12253;SDS011;6189;52.526;13.390;2022-12-07T16:20:03;9.80;;;2.67;;
12253;SDS011;6189;52.526;13.390;2022-12-07T16:22:52;8.37;;;2.93;;
12253;SDS011;6189;52.526;13.390;2022-12-07T16:25:38;7.97;;;3.23;;
12253;SDS011;6189;52.526;13.390;2022-12-07T16:28:23;10.63;;;2.73;;
12253;SDS011;6189;52.526;13.390;2022-12-07T16:31:10;9.87;;;2.90;;
12253;SDS011;6189;52.526;13.390;2022-12-07T16:33:57;8.67;;;3.17;;
12253;SDS011;6189;52.526;13.390;2022-12-07T16:36:43;9.07;;;3.97;;
12253;SDS011;6189;52.526;13.390;2022-12-07T16:39:30;7.40;;;3.40;;
12253;SDS011;6189;52.526;13.390;2022-12-07T16:42:17;8.67;;;3.53;;
12253;SDS011;6189;52.526;13.390;2022-12-07T16:45:03;4.57;;;3.07;;
12253;SDS011;6189;52.526;13.390;2022-12-07T16:47:49;8.63;;;3.10;;
12253;SDS011;6189;52.526;13.390;2022-12-07T16:50:34;9.60;;;3.57;;
12253;SDS011;6189;52.526;13.390;2022-12-07T16:53:24;8.63;;;3.57;;
12253;SDS011;6189;52.526;13.390;2022-12-07T16:56:12;6.50;;;2.90;;
12253;SDS011;6189;52.526;13.390;2022-12-07T16:58:58;9.10;;;4.47;;
12253;SDS011;6189;52.526;13.390;2022-12-07T17:01:44;12.80;;;5.40;;
12253;SDS011;6189;52.526;13.390;2022-12-07T17:04:30;8.63;;;4.30;;
12253;SDS011;6189;52.526;13.390;2022-12-07T17:07:16;12.10;;;4.23;;
12253;SDS011;6189;52.526;13.390;2022-12-07T17:10:01;8.77;;;3.37;;
12253;SDS011;6189;52.526;13.390;2022-12-07T17:12:49;12.90;;;3.80;;
12253;SDS011;6189;52.526;13.390;2022-12-07T17:15:35;7.33;;;3.83;;
12253;SDS011;6189;52.526;13.390;2022-12-07T17:18:19;5.93;;;3.30;;
12253;SDS011;6189;52.526;13.390;2022-12-07T17:21:06;8.07;;;3.50;;
12253;SDS011;6189;52.526;13.390;2022-12-07T17:23:53;10.40;;;3.47;;
12253;SDS011;6189;52.526;13.390;2022-12-07T17:26:39;6.63;;;3.50;;
12253;SDS011;6189;52.526;13.390;2022-12-07T17:29:26;6.03;;;2.87;;
12253;SDS011;6189;52.526;13.390;2022-12-07T17:32:11;9.43;;;3.00;;
12253;SDS011;6189;52.526;13.390;2022-12-07T17:34:57;12.10;;;3.53;;
12253;SDS011;6189;52.526;13.390;2022-12-07T17:37:43;9.10;;;3.00;;
12253;SDS011;6189;52.526;13.390;2022-12-07T17:40:29;7.90;;;3.00;;
12253;SDS011;6189;52.526;13.390;2022-12-07T17:43:14;8.13;;;3.13;;
12253;SDS011;6189;52.526;13.390;2022-12-07T17:46:06;7.70;;;2.80;;
12253;SDS011;6189;52.526;13.390;2022-12-07T17:48:53;6.23;;;3.40;;
12253;SDS011;6189;52.526;13.390;2022-12-07T17:51:38;9.67;;;4.33;;
12253;SDS011;6189;52.526;13.390;2022-12-07T17:54:41;8.67;;;3.67;;
12253;SDS011;6189;52.526;13.390;2022-12-07T17:57:27;7.30;;;3.30;;
12253;SDS011;6189;52.526;13.390;2022-12-07T18:00:13;5.67;;;2.73;;
12253;SDS011;6189;52.526;13.390;2022-12-07T18:03:01;6.70;;;3.73;;
12253;SDS011;6189;52.526;13.390;2022-12-07T18:05:46;8.67;;;3.63;;
12253;SDS011;6189;52.526;13.390;2022-12-07T18:08:33;8.97;;;4.40;;
12253;SDS011;6189;52.526;13.390;2022-12-07T18:11:20;9.97;;;3.87;;
12253;SDS011;6189;52.526;13.390;2022-12-07T18:14:06;7.77;;;4.37;;
12253;SDS011;6189;52.526;13.390;2022-12-07T18:16:51;7.77;;;4.50;;
12253;SDS011;6189;52.526;13.390;2022-12-07T18:19:38;7.03;;;3.53;;
12253;SDS011;6189;52.526;13.390;2022-12-07T18:22:24;7.90;;;3.60;;
12253;SDS011;6189;52.526;13.390;2022-12-07T18:25:10;7.97;;;3.97;;
12253;SDS011;6189;52.526;13.390;2022-12-07T18:27:56;7.93;;;3.37;;
12253;SDS011;6189;52.526;13.390;2022-12-07T18:30:42;7.67;;;3.83;;
12253;SDS011;6189;52.526;13.390;2022-12-07T18:33:33;8.60;;;4.23;;
12253;SDS011;6189;52.526;13.390;2022-12-07T18:36:20;7.27;;;4.50;;
12253;SDS011;6189;52.526;13.390;2022-12-07T18:39:06;8.53;;;4.10;;
12253;SDS011;6189;52.526;13.390;2022-12-07T18:41:52;7.93;;;4.03;;
12253;SDS011;6189;52.526;13.390;2022-12-07T18:44:38;6.90;;;4.53;;
12253;SDS011;6189;52.526;13.390;2022-12-07T18:47:23;7.43;;;4.33;;
12253;SDS011;6189;52.526;13.390;2022-12-07T18:50:09;6.10;;;4.03;;
12253;SDS011;6189;52.526;13.390;2022-12-07T18:52:57;9.00;;;4.00;;
12253;SDS011;6189;52.526;13.390;2022-12-07T18:55:43;8.27;;;3.67;;
12253;SDS011;6189;52.526;13.390;2022-12-07T18:58:28;12.60;;;4.37;;
12253;SDS011;6189;52.526;13.390;2022-12-07T19:01:14;7.93;;;3.90;;
12253;SDS011;6189;52.526;13.390;2022-12-07T19:04:00;10.27;;;3.43;;
12253;SDS011;6189;52.526;13.390;2022-12-07T19:06:46;7.23;;;3.60;;
12253;SDS011;6189;52.526;13.390;2022-12-07T19:09:34;7.50;;;4.10;;
12253;SDS011;6189;52.526;13.390;2022-12-07T19:12:19;7.27;;;4.13;;
12253;SDS011;6189;52.526;13.390;2022-12-07T19:15:06;8.57;;;4.40;;
12253;SDS011;6189;52.526;13.390;2022-12-07T19:17:52;7.17;;;3.60;;
12253;SDS011;6189;52.526;13.390;2022-12-07T19:20:38;6.87;;;3.90;;
12253;SDS011;6189;52.526;13.390;2022-12-07T19:23:24;10.03;;;4.13;;
12253;SDS011;6189;52.526;13.390;2022-12-07T19:26:11;6.97;;;3.60;;
12253;SDS011;6189;52.526;13.390;2022-12-07T19:28:56;9.50;;;3.60;;
12253;SDS011;6189;52.526;13.390;2022-12-07T19:31:42;9.43;;;3.50;;
12253;SDS011;6189;52.526;13.390;2022-12-07T19:34:27;7.87;;;3.90;;
12253;SDS011;6189;52.526;13.390;2022-12-07T19:37:13;9.33;;;3.90;;
12253;SDS011;6189;52.526;13.390;2022-12-07T19:39:58;7.77;;;3.60;;
12253;SDS011;6189;52.526;13.390;2022-12-07T19:42:45;6.83;;;3.73;;
12253;SDS011;6189;52.526;13.390;2022-12-07T19:45:32;9.33;;;4.00;;
12253;SDS011;6189;52.526;13.390;2022-12-07T19:48:18;8.37;;;3.80;;
12253;SDS011;6189;52.526;13.390;2022-12-07T19:51:04;7.10;;;4.50;;
12253;SDS011;6189;52.526;13.390;2022-12-07T19:53:49;9.80;;;4.93;;
12253;SDS011;6189;52.526;13.390;2022-12-07T19:56:35;10.83;;;4.43;;
12253;SDS011;6189;52.526;13.390;2022-12-07T19:59:23;8.20;;;4.73;;
12253;SDS011;6189;52.526;13.390;2022-12-07T20:02:13;6.60;;;4.43;;
12253;SDS011;6189;52.526;13.390;2022-12-07T20:05:00;8.07;;;4.93;;
12253;SDS011;6189;52.526;13.390;2022-12-07T20:07:45;9.90;;;5.07;;
12253;SDS011;6189;52.526;13.390;2022-12-07T20:10:31;11.07;;;4.60;;
12253;SDS011;6189;52.526;13.390;2022-12-07T20:13:17;7.97;;;4.30;;
12253;SDS011;6189;52.526;13.390;2022-12-07T20:16:13;8.83;;;4.70;;
12253;SDS011;6189;52.526;13.390;2022-12-07T20:18:58;9.70;;;5.03;;
12253;SDS011;6189;52.526;13.390;2022-12-07T20:21:45;9.10;;;5.33;;
12253;SDS011;6189;52.526;13.390;2022-12-07T20:24:31;10.83;;;4.47;;
12253;SDS011;6189;52.526;13.390;2022-12-07T20:27:18;5.40;;;4.23;;
12253;SDS011;6189;52.526;13.390;2022-12-07T20:30:05;5.27;;;4.43;;
12253;SDS011;6189;52.526;13.390;2022-12-07T20:32:52;9.13;;;5.37;;
12253;SDS011;6189;52.526;13.390;2022-12-07T20:35:38;11.50;;;4.97;;
12253;SDS011;6189;52.526;13.390;2022-12-07T20:38:23;7.17;;;4.83;;
12253;SDS011;6189;52.526;13.390;2022-12-07T20:41:10;10.00;;;4.83;;
12253;SDS011;6189;52.526;13.390;2022-12-07T20:44:11;10.50;;;4.87;;
12253;SDS011;6189;52.526;13.390;2022-12-07T20:46:57;9.80;;;5.47;;
12253;SDS011;6189;52.526;13.390;2022-12-07T20:49:44;9.70;;;5.70;;
12253;SDS011;6189;52.526;13.390;2022-12-07T20:52:30;8.33;;;5.27;;
12253;SDS011;6189;52.526;13.390;2022-12-07T20:55:15;8.83;;;5.70;;
12253;SDS011;6189;52.526;13.390;2022-12-07T20:58:01;9.97;;;4.90;;
12253;SDS011;6189;52.526;13.390;2022-12-07T21:00:46;7.00;;;5.10;;
12253;SDS011;6189;52.526;13.390;2022-12-07T21:03:32;8.90;;;4.80;;
12253;SDS011;6189;52.526;13.390;2022-12-07T21:06:19;8.97;;;5.33;;
12253;SDS011;6189;52.526;13.390;2022-12-07T21:09:04;9.97;;;5.23;;
12253;SDS011;6189;52.526;13.390;2022-12-07T21:11:50;12.00;;;5.50;;
12253;SDS011;6189;52.526;13.390;2022-12-07T21:14:37;8.60;;;4.47;;
12253;SDS011;6189;52.526;13.390;2022-12-07T21:17:24;7.90;;;4.80;;
12253;SDS011;6189;52.526;13.390;2022-12-07T21:20:10;7.97;;;4.83;;
12253;SDS011;6189;52.526;13.390;2022-12-07T21:22:57;9.37;;;4.67;;
12253;SDS011;6189;52.526;13.390;2022-12-07T21:25:42;9.57;;;4.60;;
12253;SDS011;6189;52.526;13.390;2022-12-07T21:28:28;9.60;;;4.90;;
12253;SDS011;6189;52.526;13.390;2022-12-07T21:31:14;7.03;;;4.23;;
12253;SDS011;6189;52.526;13.390;2022-12-07T21:34:00;9.27;;;4.97;;
12253;SDS011;6189;52.526;13.390;2022-12-07T21:36:46;8.40;;;4.70;;
12253;SDS011;6189;52.526;13.390;2022-12-07T21:39:33;10.77;;;4.67;;
12253;SDS011;6189;52.526;13.390;2022-12-07T21:42:18;11.77;;;5.20;;
12253;SDS011;6189;52.526;13.390;2022-12-07T21:45:04;10.93;;;5.47;;
12253;SDS011;6189;52.526;13.390;2022-12-07T21:47:51;9.17;;;5.30;;
12253;SDS011;6189;52.526;13.390;2022-12-07T21:50:36;9.40;;;4.60;;
12253;SDS011;6189;52.526;13.390;2022-12-07T21:53:22;7.73;;;4.77;;
12253;SDS011;6189;52.526;13.390;2022-12-07T21:56:11;10.53;;;5.23;;
12253;SDS011;6189;52.526;13.390;2022-12-07T21:59:01;9.60;;;5.17;;
12253;SDS011;6189;52.526;13.390;2022-12-07T22:01:48;8.63;;;5.57;;
12253;SDS011;6189;52.526;13.390;2022-12-07T22:04:34;7.77;;;5.20;;
12253;SDS011;6189;52.526;13.390;2022-12-07T22:07:19;10.57;;;6.00;;
12253;SDS011;6189;52.526;13.390;2022-12-07T22:10:05;12.93;;;6.10;;
12253;SDS011;6189;52.526;13.390;2022-12-07T22:12:53;8.57;;;5.97;;
12253;SDS011;6189;52.526;13.390;2022-12-07T22:15:40;11.80;;;6.73;;
12253;SDS011;6189;52.526;13.390;2022-12-07T22:18:25;11.07;;;5.33;;
12253;SDS011;6189;52.526;13.390;2022-12-07T22:21:10;12.97;;;5.90;;
12253;SDS011;6189;52.526;13.390;2022-12-07T22:23:56;9.87;;;6.13;;
12253;SDS011;6189;52.526;13.390;2022-12-07T22:26:42;10.33;;;6.30;;
12253;SDS011;6189;52.526;13.390;2022-12-07T22:29:29;9.10;;;6.53;;
12253;SDS011;6189;52.526;13.390;2022-12-07T22:32:15;10.93;;;6.43;;
12253;SDS011;6189;52.526;13.390;2022-12-07T22:35:00;8.93;;;6.33;;
12253;SDS011;6189;52.526;13.390;2022-12-07T22:37:46;10.13;;;6.10;;
12253;SDS011;6189;52.526;13.390;2022-12-07T22:40:32;14.67;;;6.00;;
12253;SDS011;6189;52.526;13.390;2022-12-07T22:43:17;7.57;;;5.37;;
12253;SDS011;6189;52.526;13.390;2022-12-07T22:46:04;11.47;;;6.10;;
12253;SDS011;6189;52.526;13.390;2022-12-07T22:48:50;12.07;;;6.37;;
12253;SDS011;6189;52.526;13.390;2022-12-07T22:51:37;9.23;;;5.63;;
12253;SDS011;6189;52.526;13.390;2022-12-07T22:54:24;10.70;;;6.80;;
12253;SDS011;6189;52.526;13.390;2022-12-07T22:57:09;10.67;;;6.50;;
12253;SDS011;6189;52.526;13.390;2022-12-07T22:59:56;11.53;;;6.60;;
12253;SDS011;6189;52.526;13.390;2022-12-07T23:02:43;7.67;;;5.77;;
12253;SDS011;6189;52.526;13.390;2022-12-07T23:05:29;10.17;;;6.17;;
12253;SDS011;6189;52.526;13.390;2022-12-07T23:08:15;7.40;;;6.13;;
12253;SDS011;6189;52.526;13.390;2022-12-07T23:11:01;9.80;;;5.87;;
12253;SDS011;6189;52.526;13.390;2022-12-07T23:13:48;10.73;;;5.47;;
12253;SDS011;6189;52.526;13.390;2022-12-07T23:16:32;9.50;;;6.20;;
12253;SDS011;6189;52.526;13.390;2022-12-07T23:19:19;10.17;;;6.40;;
12253;SDS011;6189;52.526;13.390;2022-12-07T23:22:05;9.87;;;6.30;;
12253;SDS011;6189;52.526;13.390;2022-12-07T23:24:50;9.60;;;5.57;;
12253;SDS011;6189;52.526;13.390;2022-12-07T23:27:36;8.40;;;5.97;;
12253;SDS011;6189;52.526;13.390;2022-12-07T23:30:22;7.07;;;5.50;;
12253;SDS011;6189;52.526;13.390;2022-12-07T23:33:07;8.27;;;5.87;;
12253;SDS011;6189;52.526;13.390;2022-12-07T23:35:54;10.27;;;6.30;;
12253;SDS011;6189;52.526;13.390;2022-12-07T23:38:40;13.27;;;6.70;;
12253;SDS011;6189;52.526;13.390;2022-12-07T23:41:28;9.17;;;6.23;;
12253;SDS011;6189;52.526;13.390;2022-12-07T23:44:14;9.27;;;6.37;;
12253;SDS011;6189;52.526;13.390;2022-12-07T23:47:00;10.40;;;6.20;;
12253;SDS011;6189;52.526;13.390;2022-12-07T23:49:45;11.77;;;6.67;;
12253;SDS011;6189;52.526;13.390;2022-12-07T23:52:32;12.13;;;6.53;;
12253;SDS011;6189;52.526;13.390;2022-12-07T23:55:18;9.67;;;6.27;;
12253;SDS011;6189;52.526;13.390;2022-12-07T23:58:04;13.03;;;7.17;;
